Wind Surf — C6IO6 — position and weather

sailwx.info

Track history (hours):
 
Tides and Currents Weather Stations Pressure Air Temp Water Temp Dewpoint Dewpoint Depression Visibility Wind Speed Wind Dir Waves Ship Positions

Wind Surf

Operator: Holland America Line

Last reported at 2018-Oct-19 18:50 UTC. Time now 2018-Oct-20 12:29 UTC.
Position N 40°55' E 013°22'.

Length 187 m; draft 5.4 m.

Type: Passenger vessel. MMSI: 309242000.

Date/timePositionNaut miles runAvg speedWind from/ knotsBaromVisibWave heightAir tempDewpointWater temp
2018-Oct-19 18:50N 40°55' E 013°22'511.6
2018-Oct-19 18:23N 40°52' E 013°28'411.6
2018-Oct-19 18:03N 40°50' E 013°32'111.6
2018-Oct-19 18:00N 40°49' E 013°33'1211.9
2018-Oct-19 16:57N 40°42' E 013°46'612.2
2018-Oct-19 16:30N 40°39' E 013°52'512.0
2018-Oct-19 16:03N 40°36' E 013°58'111.9
2018-Oct-19 16:00N 40°36' E 013°59'611.9
2018-Oct-19 15:30N 40°33' E 014°06'611.8
2018-Oct-19 15:00N 40°31' E 014°13'1212.3
2018-Oct-19 14:00N 40°34' E 014°29'7 0.8
2018-Oct-19 05:57N 40°37' E 014°37'4 9.8
2018-Oct-19 05:30N 40°33' E 014°38'4 9.9
2018-Oct-19 05:03N 40°28' E 014°39'1 9.7
2018-Oct-19 05:00N 40°28' E 014°39'5 9.9
2018-Oct-19 04:30N 40°23' E 014°40'4 9.7
2018-Oct-19 04:02N 40°18' E 014°42'0 9.9
2018-Oct-19 04:00N 40°18' E 014°42'610.1
2018-Oct-19 03:27N 40°13' E 014°44'4 9.9
2018-Oct-19 03:03N 40°09' E 014°45'0 9.8
2018-Oct-19 03:00N 40°08' E 014°45'910.2
2018-Oct-19 02:07N 39°60' E 014°48'8310.3
2018-Oct-18 18:02N 38°40' E 015°17'010.3
2018-Oct-18 18:00N 38°40' E 015°17'510.5
2018-Oct-18 17:29N 38°35' E 015°21'510.7
2018-Oct-18 17:00N 38°31' E 015°26'611.1
2018-Oct-18 16:29N 38°27' E 015°30'510.8
2018-Oct-18 16:03N 38°24' E 015°34'110.8
2018-Oct-18 16:00N 38°23' E 015°35'510.4
2018-Oct-18 15:30N 38°19' E 015°39'4 8.8
2018-Oct-18 15:03N 38°15' E 015°41'1 9.7
2018-Oct-18 15:00N 38°15' E 015°40'5 9.5
2018-Oct-18 14:26N 38°12' E 015°34'1 0.1
2018-Oct-18 06:22N 38°11' E 015°34'0 0.0
2018-Oct-18 06:02N 38°11' E 015°34'0 0.0
2018-Oct-18 06:00N 38°11' E 015°34'0 0.4
2018-Oct-18 05:30N 38°12' E 015°34'2 3.6
2018-Oct-18 05:03N 38°13' E 015°35'0 2.5
2018-Oct-18 04:58N 38°13' E 015°35'2 5.2
2018-Oct-18 04:30N 38°11' E 015°37'4 8.8
2018-Oct-18 04:02N 38°07' E 015°36'1 8.9
2018-Oct-18 03:57N 38°06' E 015°36'4 9.4
2018-Oct-18 03:30N 38°02' E 015°36'4 9.5
2018-Oct-18 03:03N 37°57' E 015°37'0 9.4
2018-Oct-18 03:00N 37°57' E 015°37'5 9.2
2018-Oct-18 02:28N 37°53' E 015°41'4 9.4
2018-Oct-18 02:03N 37°51' E 015°45'0 9.3
2018-Oct-18 02:00N 37°51' E 015°46'5 9.1
2018-Oct-18 01:28N 37°50' E 015°52'4 9.9
2018-Oct-18 01:03N 37°50' E 015°57'110.0
2018-Oct-18 00:58N 37°50' E 015°58'  
2018-Oct-13 18:48N 44°25' E 014°14'311.7
2018-Oct-13 18:30N 44°28' E 014°11'511.8
2018-Oct-13 18:03N 44°31' E 014°05'112.1
2018-Oct-13 18:00N 44°32' E 014°05'611.1
2018-Oct-13 17:30N 44°36' E 013°59'510.7
2018-Oct-13 17:03N 44°39' E 013°54'110.5
2018-Oct-13 17:00N 44°39' E 013°54'510.6
2018-Oct-13 16:30N 44°44' E 013°49'510.8
2018-Oct-13 16:03N 44°47' E 013°45'110.7
2018-Oct-13 16:00N 44°48' E 013°44'510.7
2018-Oct-13 15:30N 44°52' E 013°40'510.8
2018-Oct-13 15:03N 44°56' E 013°36'110.9
2018-Oct-13 15:00N 44°57' E 013°36'511.0
2018-Oct-13 14:30N 45°02' E 013°35'4 7.6
2018-Oct-13 14:00N 45°05' E 013°38'0 0.1
2018-Oct-13 13:30N 45°05' E 013°38'0 0.0
2018-Oct-13 13:00N 45°05' E 013°38'0 0.0
2018-Oct-13 12:30N 45°05' E 013°38'0 0.0
2018-Oct-13 12:03N 45°05' E 013°38'0 0.1
2018-Oct-13 12:00N 45°05' E 013°38'0 0.0
2018-Oct-13 11:24N 45°05' E 013°38'0 0.0
2018-Oct-13 11:03N 45°05' E 013°38'0 0.0
2018-Oct-13 11:00N 45°05' E 013°38'0 0.0
2018-Oct-13 10:24N 45°05' E 013°38'0 0.0
2018-Oct-13 09:54N 45°05' E 013°38'0 0.0
2018-Oct-13 09:30N 45°05' E 013°38'0 0.0
2018-Oct-13 09:00N 45°05' E 013°38'0 0.0
2018-Oct-13 08:30N 45°05' E 013°38'0 0.0
2018-Oct-13 08:03N 45°05' E 013°38'0 0.0
2018-Oct-13 08:00N 45°05' E 013°38'0 0.0
2018-Oct-13 07:27N 45°05' E 013°38'0 0.0
2018-Oct-13 07:03N 45°05' E 013°38'0 0.2
2018-Oct-13 07:00N 45°05' E 013°38'0 0.0
2018-Oct-13 06:21N 45°05' E 013°38'0 0.0
2018-Oct-13 06:00N 45°05' E 013°38'0 0.0
2018-Oct-13 05:27N 45°05' E 013°38'0 0.4
2018-Oct-13 05:03N 45°05' E 013°38'0 4.3
2018-Oct-13 05:00N 45°05' E 013°37'3 5.2
2018-Oct-13 04:30N 45°05' E 013°34'3 5.9
2018-Oct-13 04:03N 45°05' E 013°30'0 6.2
2018-Oct-13 04:00N 45°05' E 013°30'3 6.4
2018-Oct-13 03:30N 45°05' E 013°25'3 6.8
2018-Oct-13 03:03N 45°05' E 013°21'0 6.8
2018-Oct-13 03:00N 45°05' E 013°20'3 6.7
2018-Oct-13 02:30N 45°04' E 013°16'3 6.5
2018-Oct-13 02:03N 45°04' E 013°12'0 6.6
2018-Oct-13 02:00N 45°04' E 013°11'3 6.4
2018-Oct-13 01:30N 45°02' E 013°07'3 6.2
2018-Oct-13 01:03N 45°01' E 013°03'0 6.2
2018-Oct-13 01:00N 45°01' E 013°03'3 6.3
2018-Oct-13 00:30N 44°59' E 013°00'3 6.2
2018-Oct-13 00:03N 44°57' E 012°57'0 6.3
2018-Oct-13 00:00N 44°57' E 012°57'3 6.4
2018-Oct-12 23:30N 44°55' E 012°53'3 6.5
2018-Oct-12 23:03N 44°56' E 012°49'0 6.7
2018-Oct-12 23:00N 44°56' E 012°49'3 6.2
2018-Oct-12 22:30N 44°59' E 012°48'3 6.2
2018-Oct-12 22:03N 45°02' E 012°47'0 6.7
2018-Oct-12 22:00N 45°02' E 012°46'3 6.5
2018-Oct-12 21:30N 45°05' E 012°44'3 6.6
2018-Oct-12 21:03N 45°07' E 012°42'0 6.4
2018-Oct-12 21:00N 45°07' E 012°42'3 6.7
2018-Oct-12 20:30N 45°09' E 012°38'3 6.5
2018-Oct-12 20:03N 45°11' E 012°34'0 6.5
2018-Oct-12 20:00N 45°11' E 012°34'3 6.4
2018-Oct-12 19:30N 45°13' E 012°30'3 6.4
2018-Oct-12 19:03N 45°16' E 012°30'0 6.4
2018-Oct-12 19:00N 45°16' E 012°30'3 6.8
2018-Oct-12 18:30N 45°19' E 012°30'3 6.1
2018-Oct-12 18:03N 45°22' E 012°30'0 5.8
2018-Oct-12 18:00N 45°22' E 012°30'4 7.0
2018-Oct-12 17:30N 45°25' E 012°27'3 6.4
2018-Oct-12 17:03N 45°26' E 012°22'0 6.2
2018-Oct-12 17:00N 45°25' E 012°22'2 4.6
2018-Oct-12 16:30N 45°26' E 012°19'0 0.0
2018-Oct-12 16:00N 45°26' E 012°19'0 0.0
2018-Oct-12 15:30N 45°26' E 012°19'0 0.0
2018-Oct-12 15:00N 45°26' E 012°19'0 0.0
2018-Oct-12 14:30N 45°26' E 012°19'0 0.0
2018-Oct-12 14:00N 45°26' E 012°19'0 0.0
2018-Oct-12 13:27N 45°26' E 012°19'0 0.0
2018-Oct-12 13:03N 45°26' E 012°19'0 0.0
2018-Oct-12 12:57N 45°26' E 012°19'0 0.0
2018-Oct-12 12:30N 45°26' E 012°19'0 0.0
2018-Oct-12 12:00N 45°26' E 012°19'0 0.0
2018-Oct-12 11:30N 45°26' E 012°19'0 0.0
2018-Oct-12 11:00N 45°26' E 012°19'0 0.0
2018-Oct-12 10:30N 45°26' E 012°19'0 0.0
2018-Oct-12 10:03N 45°26' E 012°19'0 0.0
2018-Oct-12 10:00N 45°26' E 012°19'0 0.0
2018-Oct-12 09:30N 45°26' E 012°19'0 0.0
2018-Oct-12 09:03N 45°26' E 012°19'0 0.0
2018-Oct-12 09:00N 45°26' E 012°19'0 0.0
2018-Oct-12 08:30N 45°26' E 012°19'0 0.0
2018-Oct-12 08:03N 45°26' E 012°19'0 0.0
2018-Oct-12 08:00N 45°26' E 012°19'0 0.0
2018-Oct-12 07:11N 45°26' E 012°19'0 0.0
2018-Oct-12 06:56N 45°26' E 012°19'0 0.0
2018-Oct-12 06:29N 45°26' E 012°19'0 0.0
2018-Oct-12 06:02N 45°26' E 012°19'0 0.0
2018-Oct-12 05:59N 45°26' E 012°19'0 0.0
2018-Oct-12 05:29N 45°26' E 012°19'0 0.0
2018-Oct-12 05:02N 45°26' E 012°19'0 0.0
2018-Oct-12 04:59N 45°26' E 012°19'0 0.2
2018-Oct-12 04:30N 45°26' E 012°19'2 5.5
2018-Oct-12 04:03N 45°25' E 012°22'0 6.3
2018-Oct-12 04:00N 45°26' E 012°23'4 7.4
2018-Oct-12 03:30N 45°24' E 012°28'3 6.8
2018-Oct-12 03:03N 45°23' E 012°31'0 6.2
2018-Oct-12 03:01N 45°23' E 012°32'3 6.8
2018-Oct-12 02:30N 45°19' E 012°32'3 6.3
2018-Oct-12 02:03N 45°16' E 012°33'0 6.6
2018-Oct-12 02:00N 45°16' E 012°33'3 6.7
2018-Oct-12 01:30N 45°14' E 012°37'3 6.9
2018-Oct-12 01:03N 45°12' E 012°41'0 7.0
2018-Oct-12 01:00N 45°12' E 012°41'3 6.9
2018-Oct-12 00:30N 45°10' E 012°45'3 6.8
2018-Oct-12 00:04N 45°09' E 012°49'0 6.5
2018-Oct-12 00:00N 45°09' E 012°50'3 6.7
2018-Oct-11 23:30N 45°06' E 012°52'3 6.8
2018-Oct-11 23:03N 45°03' E 012°54'0 6.9
2018-Oct-11 23:00N 45°03' E 012°54'4 7.3
2018-Oct-11 22:30N 44°59' E 012°56'3 5.3
2018-Oct-11 22:02N 44°57' E 012°58'0 5.9
2018-Oct-11 22:00N 44°57' E 012°58'3 6.6
2018-Oct-11 21:31N 44°60' E 013°00'3 6.5
2018-Oct-11 21:03N 45°02' E 013°03'0 6.9
2018-Oct-11 21:00N 45°02' E 013°03'3 6.8
2018-Oct-11 20:31N 45°03' E 013°08'3 6.8
2018-Oct-11 20:03N 45°04' E 013°12'0 6.8
2018-Oct-11 20:00N 45°04' E 013°13'3 6.7
2018-Oct-11 19:30N 45°05' E 013°17'3 6.6
2018-Oct-11 19:03N 45°05' E 013°21'0 6.4
2018-Oct-11 19:00N 45°05' E 013°22'3 6.6
2018-Oct-11 18:30N 45°05' E 013°26'3 6.6
2018-Oct-11 18:03N 45°05' E 013°31'0 6.8
2018-Oct-11 18:01N 45°05' E 013°31'3 6.7
2018-Oct-11 17:30N 45°05' E 013°36'1 1.9
2018-Oct-11 16:52N 45°05' E 013°38'0 0.0
2018-Oct-11 16:25N 45°05' E 013°38'0 0.0
2018-Oct-11 15:58N 45°05' E 013°38'0 0.0
2018-Oct-11 15:25N 45°05' E 013°38'0 0.0
2018-Oct-11 15:01N 45°05' E 013°38'0 0.0
2018-Oct-11 14:58N 45°05' E 013°38'0 0.0
2018-Oct-11 14:25N 45°05' E 013°38'0 0.0
2018-Oct-11 13:55N 45°05' E 013°38'0 0.0
2018-Oct-11 13:25N 45°05' E 013°38'0 0.0
2018-Oct-11 13:01N 45°05' E 013°38'0 0.1
2018-Oct-11 12:58N 45°05' E 013°38'0 0.0
2018-Oct-11 12:28N 45°05' E 013°38'0 0.0
2018-Oct-11 12:01N 45°05' E 013°38'0 0.1
2018-Oct-11 11:55N 45°05' E 013°38'0 0.0
2018-Oct-11 11:28N 45°05' E 013°38'0 0.0
2018-Oct-11 11:01N 45°05' E 013°38'0 0.0
2018-Oct-11 10:43N 45°05' E 013°38'0 0.0
2018-Oct-11 10:28N 45°05' E 013°38'0 0.0
2018-Oct-11 10:01N 45°05' E 013°38'0 0.1
2018-Oct-11 09:52N 45°05' E 013°38'0 0.0
2018-Oct-11 09:28N 45°05' E 013°38'0 0.0
2018-Oct-11 08:52N 45°05' E 013°38'0 0.0
2018-Oct-11 08:25N 45°05' E 013°38'0 0.1
2018-Oct-11 08:01N 45°05' E 013°38'0 0.0
2018-Oct-11 07:25N 45°05' E 013°38'0 0.0
2018-Oct-11 06:58N 45°05' E 013°38'0 0.0
2018-Oct-11 06:19N 45°05' E 013°38'0 1.0
2018-Oct-11 06:03N 45°05' E 013°37'0 4.3
2018-Oct-11 06:00N 45°05' E 013°37'4 7.8
2018-Oct-11 05:30N 45°02' E 013°35'510.4
2018-Oct-11 05:03N 44°57' E 013°35'110.5
2018-Oct-11 05:00N 44°56' E 013°35'510.7
2018-Oct-11 04:30N 44°52' E 013°38'511.5
2018-Oct-11 04:03N 44°47' E 013°42'111.7
2018-Oct-11 04:00N 44°47' E 013°43'1211.4
2018-Oct-11 02:59N 44°39' E 013°55'511.1
2018-Oct-11 02:30N 44°35' E 013°60'811.1
2018-Oct-11 01:49N 44°30' E 014°08'411.2
2018-Oct-11 01:30N 44°27' E 014°11'  
Track history (hours):
 
Tides and Currents Weather Stations Pressure Air Temp Water Temp Dewpoint Dewpoint Depression Visibility Wind Speed Wind Dir Waves Ship Positions

Wind Surf

Operator: Holland America Line

Last reported at 2018-Oct-19 18:50 UTC. Time now 2018-Oct-20 12:29 UTC.
Position N 40°55' E 013°22'.

Length 187 m; draft 5.4 m.

Type: Passenger vessel. MMSI: 309242000.

Date/timePositionNaut miles runAvg speedWind from/ knotsBaromVisibWave heightAir tempDewpointWater temp
2018-Oct-19 18:50N 40°55' E 013°22'511.6
2018-Oct-19 18:23N 40°52' E 013°28'411.6
2018-Oct-19 18:03N 40°50' E 013°32'111.6
2018-Oct-19 18:00N 40°49' E 013°33'1211.9
2018-Oct-19 16:57N 40°42' E 013°46'612.2
2018-Oct-19 16:30N 40°39' E 013°52'512.0
2018-Oct-19 16:03N 40°36' E 013°58'111.9
2018-Oct-19 16:00N 40°36' E 013°59'611.9
2018-Oct-19 15:30N 40°33' E 014°06'611.8
2018-Oct-19 15:00N 40°31' E 014°13'1212.3
2018-Oct-19 14:00N 40°34' E 014°29'7 0.8
2018-Oct-19 05:57N 40°37' E 014°37'4 9.8
2018-Oct-19 05:30N 40°33' E 014°38'4 9.9
2018-Oct-19 05:03N 40°28' E 014°39'1 9.7
2018-Oct-19 05:00N 40°28' E 014°39'5 9.9
2018-Oct-19 04:30N 40°23' E 014°40'4 9.7
2018-Oct-19 04:02N 40°18' E 014°42'0 9.9
2018-Oct-19 04:00N 40°18' E 014°42'610.1
2018-Oct-19 03:27N 40°13' E 014°44'4 9.9
2018-Oct-19 03:03N 40°09' E 014°45'0 9.8
2018-Oct-19 03:00N 40°08' E 014°45'910.2
2018-Oct-19 02:07N 39°60' E 014°48'8310.3
2018-Oct-18 18:02N 38°40' E 015°17'010.3
2018-Oct-18 18:00N 38°40' E 015°17'510.5
2018-Oct-18 17:29N 38°35' E 015°21'510.7
2018-Oct-18 17:00N 38°31' E 015°26'611.1
2018-Oct-18 16:29N 38°27' E 015°30'510.8
2018-Oct-18 16:03N 38°24' E 015°34'110.8
2018-Oct-18 16:00N 38°23' E 015°35'510.4
2018-Oct-18 15:30N 38°19' E 015°39'4 8.8
2018-Oct-18 15:03N 38°15' E 015°41'1 9.7
2018-Oct-18 15:00N 38°15' E 015°40'5 9.5
2018-Oct-18 14:26N 38°12' E 015°34'1 0.1
2018-Oct-18 06:22N 38°11' E 015°34'0 0.0
2018-Oct-18 06:02N 38°11' E 015°34'0 0.0
2018-Oct-18 06:00N 38°11' E 015°34'0 0.4
2018-Oct-18 05:30N 38°12' E 015°34'2 3.6
2018-Oct-18 05:03N 38°13' E 015°35'0 2.5
2018-Oct-18 04:58N 38°13' E 015°35'2 5.2
2018-Oct-18 04:30N 38°11' E 015°37'4 8.8
2018-Oct-18 04:02N 38°07' E 015°36'1 8.9
2018-Oct-18 03:57N 38°06' E 015°36'4 9.4
2018-Oct-18 03:30N 38°02' E 015°36'4 9.5
2018-Oct-18 03:03N 37°57' E 015°37'0 9.4
2018-Oct-18 03:00N 37°57' E 015°37'5 9.2
2018-Oct-18 02:28N 37°53' E 015°41'4 9.4
2018-Oct-18 02:03N 37°51' E 015°45'0 9.3
2018-Oct-18 02:00N 37°51' E 015°46'5 9.1
2018-Oct-18 01:28N 37°50' E 015°52'4 9.9
2018-Oct-18 01:03N 37°50' E 015°57'110.0
2018-Oct-18 00:58N 37°50' E 015°58'  
2018-Oct-13 18:48N 44°25' E 014°14'311.7
2018-Oct-13 18:30N 44°28' E 014°11'511.8
2018-Oct-13 18:03N 44°31' E 014°05'112.1
2018-Oct-13 18:00N 44°32' E 014°05'611.1
2018-Oct-13 17:30N 44°36' E 013°59'510.7
2018-Oct-13 17:03N 44°39' E 013°54'110.5
2018-Oct-13 17:00N 44°39' E 013°54'510.6
2018-Oct-13 16:30N 44°44' E 013°49'510.8
2018-Oct-13 16:03N 44°47' E 013°45'110.7
2018-Oct-13 16:00N 44°48' E 013°44'510.7
2018-Oct-13 15:30N 44°52' E 013°40'510.8
2018-Oct-13 15:03N 44°56' E 013°36'110.9
2018-Oct-13 15:00N 44°57' E 013°36'511.0
2018-Oct-13 14:30N 45°02' E 013°35'4 7.6
2018-Oct-13 14:00N 45°05' E 013°38'0 0.1
2018-Oct-13 13:30N 45°05' E 013°38'0 0.0
2018-Oct-13 13:00N 45°05' E 013°38'0 0.0
2018-Oct-13 12:30N 45°05' E 013°38'0 0.0
2018-Oct-13 12:03N 45°05' E 013°38'0 0.1
2018-Oct-13 12:00N 45°05' E 013°38'0 0.0
2018-Oct-13 11:24N 45°05' E 013°38'0 0.0
2018-Oct-13 11:03N 45°05' E 013°38'0 0.0
2018-Oct-13 11:00N 45°05' E 013°38'0 0.0
2018-Oct-13 10:24N 45°05' E 013°38'0 0.0
2018-Oct-13 09:54N 45°05' E 013°38'0 0.0
2018-Oct-13 09:30N 45°05' E 013°38'0 0.0
2018-Oct-13 09:00N 45°05' E 013°38'0 0.0
2018-Oct-13 08:30N 45°05' E 013°38'0 0.0
2018-Oct-13 08:03N 45°05' E 013°38'0 0.0
2018-Oct-13 08:00N 45°05' E 013°38'0 0.0
2018-Oct-13 07:27N 45°05' E 013°38'0 0.0
2018-Oct-13 07:03N 45°05' E 013°38'0 0.2
2018-Oct-13 07:00N 45°05' E 013°38'0 0.0
2018-Oct-13 06:21N 45°05' E 013°38'0 0.0
2018-Oct-13 06:00N 45°05' E 013°38'0 0.0
2018-Oct-13 05:27N 45°05' E 013°38'0 0.4
2018-Oct-13 05:03N 45°05' E 013°38'0 4.3
2018-Oct-13 05:00N 45°05' E 013°37'3 5.2
2018-Oct-13 04:30N 45°05' E 013°34'3 5.9
2018-Oct-13 04:03N 45°05' E 013°30'0 6.2
2018-Oct-13 04:00N 45°05' E 013°30'3 6.4
2018-Oct-13 03:30N 45°05' E 013°25'3 6.8
2018-Oct-13 03:03N 45°05' E 013°21'0 6.8
2018-Oct-13 03:00N 45°05' E 013°20'3 6.7
2018-Oct-13 02:30N 45°04' E 013°16'3 6.5
2018-Oct-13 02:03N 45°04' E 013°12'0 6.6
2018-Oct-13 02:00N 45°04' E 013°11'3 6.4
2018-Oct-13 01:30N 45°02' E 013°07'3 6.2
2018-Oct-13 01:03N 45°01' E 013°03'0 6.2
2018-Oct-13 01:00N 45°01' E 013°03'3 6.3
2018-Oct-13 00:30N 44°59' E 013°00'3 6.2
2018-Oct-13 00:03N 44°57' E 012°57'0 6.3
2018-Oct-13 00:00N 44°57' E 012°57'3 6.4
2018-Oct-12 23:30N 44°55' E 012°53'3 6.5
2018-Oct-12 23:03N 44°56' E 012°49'0 6.7
2018-Oct-12 23:00N 44°56' E 012°49'3 6.2
2018-Oct-12 22:30N 44°59' E 012°48'3 6.2
2018-Oct-12 22:03N 45°02' E 012°47'0 6.7
2018-Oct-12 22:00N 45°02' E 012°46'3 6.5
2018-Oct-12 21:30N 45°05' E 012°44'3 6.6
2018-Oct-12 21:03N 45°07' E 012°42'0 6.4
2018-Oct-12 21:00N 45°07' E 012°42'3 6.7
2018-Oct-12 20:30N 45°09' E 012°38'3 6.5
2018-Oct-12 20:03N 45°11' E 012°34'0 6.5
2018-Oct-12 20:00N 45°11' E 012°34'3 6.4
2018-Oct-12 19:30N 45°13' E 012°30'3 6.4
2018-Oct-12 19:03N 45°16' E 012°30'0 6.4
2018-Oct-12 19:00N 45°16' E 012°30'3 6.8
2018-Oct-12 18:30N 45°19' E 012°30'3 6.1
2018-Oct-12 18:03N 45°22' E 012°30'0 5.8
2018-Oct-12 18:00N 45°22' E 012°30'4 7.0
2018-Oct-12 17:30N 45°25' E 012°27'3 6.4
2018-Oct-12 17:03N 45°26' E 012°22'0 6.2
2018-Oct-12 17:00N 45°25' E 012°22'2 4.6
2018-Oct-12 16:30N 45°26' E 012°19'0 0.0
2018-Oct-12 16:00N 45°26' E 012°19'0 0.0
2018-Oct-12 15:30N 45°26' E 012°19'0 0.0
2018-Oct-12 15:00N 45°26' E 012°19'0 0.0
2018-Oct-12 14:30N 45°26' E 012°19'0 0.0
2018-Oct-12 14:00N 45°26' E 012°19'0 0.0
2018-Oct-12 13:27N 45°26' E 012°19'0 0.0
2018-Oct-12 13:03N 45°26' E 012°19'0 0.0
2018-Oct-12 12:57N 45°26' E 012°19'0 0.0
2018-Oct-12 12:30N 45°26' E 012°19'0 0.0
2018-Oct-12 12:00N 45°26' E 012°19'0 0.0
2018-Oct-12 11:30N 45°26' E 012°19'0 0.0
2018-Oct-12 11:00N 45°26' E 012°19'0 0.0
2018-Oct-12 10:30N 45°26' E 012°19'0 0.0
2018-Oct-12 10:03N 45°26' E 012°19'0 0.0
2018-Oct-12 10:00N 45°26' E 012°19'0 0.0
2018-Oct-12 09:30N 45°26' E 012°19'0 0.0
2018-Oct-12 09:03N 45°26' E 012°19'0 0.0
2018-Oct-12 09:00N 45°26' E 012°19'0 0.0
2018-Oct-12 08:30N 45°26' E 012°19'0 0.0
2018-Oct-12 08:03N 45°26' E 012°19'0 0.0
2018-Oct-12 08:00N 45°26' E 012°19'0 0.0
2018-Oct-12 07:11N 45°26' E 012°19'0 0.0
2018-Oct-12 06:56N 45°26' E 012°19'0 0.0
2018-Oct-12 06:29N 45°26' E 012°19'0 0.0
2018-Oct-12 06:02N 45°26' E 012°19'0 0.0
2018-Oct-12 05:59N 45°26' E 012°19'0 0.0
2018-Oct-12 05:29N 45°26' E 012°19'0 0.0
2018-Oct-12 05:02N 45°26' E 012°19'0 0.0
2018-Oct-12 04:59N 45°26' E 012°19'0 0.2
2018-Oct-12 04:30N 45°26' E 012°19'2 5.5
2018-Oct-12 04:03N 45°25' E 012°22'0 6.3
2018-Oct-12 04:00N 45°26' E 012°23'4 7.4
2018-Oct-12 03:30N 45°24' E 012°28'3 6.8
2018-Oct-12 03:03N 45°23' E 012°31'0 6.2
2018-Oct-12 03:01N 45°23' E 012°32'3 6.8
2018-Oct-12 02:30N 45°19' E 012°32'3 6.3
2018-Oct-12 02:03N 45°16' E 012°33'0 6.6
2018-Oct-12 02:00N 45°16' E 012°33'3 6.7
2018-Oct-12 01:30N 45°14' E 012°37'3 6.9
2018-Oct-12 01:03N 45°12' E 012°41'0 7.0
2018-Oct-12 01:00N 45°12' E 012°41'3 6.9
2018-Oct-12 00:30N 45°10' E 012°45'3 6.8
2018-Oct-12 00:04N 45°09' E 012°49'0 6.5
2018-Oct-12 00:00N 45°09' E 012°50'3 6.7
2018-Oct-11 23:30N 45°06' E 012°52'3 6.8
2018-Oct-11 23:03N 45°03' E 012°54'0 6.9
2018-Oct-11 23:00N 45°03' E 012°54'4 7.3
2018-Oct-11 22:30N 44°59' E 012°56'3 5.3
2018-Oct-11 22:02N 44°57' E 012°58'0 5.9
2018-Oct-11 22:00N 44°57' E 012°58'3 6.6
2018-Oct-11 21:31N 44°60' E 013°00'3 6.5
2018-Oct-11 21:03N 45°02' E 013°03'0 6.9
2018-Oct-11 21:00N 45°02' E 013°03'3 6.8
2018-Oct-11 20:31N 45°03' E 013°08'3 6.8
2018-Oct-11 20:03N 45°04' E 013°12'0 6.8
2018-Oct-11 20:00N 45°04' E 013°13'3 6.7
2018-Oct-11 19:30N 45°05' E 013°17'3 6.6
2018-Oct-11 19:03N 45°05' E 013°21'0 6.4
2018-Oct-11 19:00N 45°05' E 013°22'3 6.6
2018-Oct-11 18:30N 45°05' E 013°26'3 6.6
2018-Oct-11 18:03N 45°05' E 013°31'0 6.8
2018-Oct-11 18:01N 45°05' E 013°31'3 6.7
2018-Oct-11 17:30N 45°05' E 013°36'1 1.9
2018-Oct-11 16:52N 45°05' E 013°38'0 0.0
2018-Oct-11 16:25N 45°05' E 013°38'0 0.0
2018-Oct-11 15:58N 45°05' E 013°38'0 0.0
2018-Oct-11 15:25N 45°05' E 013°38'0 0.0
2018-Oct-11 15:01N 45°05' E 013°38'0 0.0
2018-Oct-11 14:58N 45°05' E 013°38'0 0.0
2018-Oct-11 14:25N 45°05' E 013°38'0 0.0
2018-Oct-11 13:55N 45°05' E 013°38'0 0.0
2018-Oct-11 13:25N 45°05' E 013°38'0 0.0
2018-Oct-11 13:01N 45°05' E 013°38'0 0.1
2018-Oct-11 12:58N 45°05' E 013°38'0 0.0
2018-Oct-11 12:28N 45°05' E 013°38'0 0.0
2018-Oct-11 12:01N 45°05' E 013°38'0 0.1
2018-Oct-11 11:55N 45°05' E 013°38'0 0.0
2018-Oct-11 11:28N 45°05' E 013°38'0 0.0
2018-Oct-11 11:01N 45°05' E 013°38'0 0.0
2018-Oct-11 10:43N 45°05' E 013°38'0 0.0
2018-Oct-11 10:28N 45°05' E 013°38'0 0.0
2018-Oct-11 10:01N 45°05' E 013°38'0 0.1
2018-Oct-11 09:52N 45°05' E 013°38'0 0.0
2018-Oct-11 09:28N 45°05' E 013°38'0 0.0
2018-Oct-11 08:52N 45°05' E 013°38'0 0.0
2018-Oct-11 08:25N 45°05' E 013°38'0 0.1
2018-Oct-11 08:01N 45°05' E 013°38'0 0.0
2018-Oct-11 07:25N 45°05' E 013°38'0 0.0
2018-Oct-11 06:58N 45°05' E 013°38'0 0.0
2018-Oct-11 06:19N 45°05' E 013°38'0 1.0
2018-Oct-11 06:03N 45°05' E 013°37'0 4.3
2018-Oct-11 06:00N 45°05' E 013°37'4 7.8
2018-Oct-11 05:30N 45°02' E 013°35'510.4
2018-Oct-11 05:03N 44°57' E 013°35'110.5
2018-Oct-11 05:00N 44°56' E 013°35'510.7
2018-Oct-11 04:30N 44°52' E 013°38'511.5
2018-Oct-11 04:03N 44°47' E 013°42'111.7
2018-Oct-11 04:00N 44°47' E 013°43'1211.4
2018-Oct-11 02:59N 44°39' E 013°55'511.1
2018-Oct-11 02:30N 44°35' E 013°60'811.1
2018-Oct-11 01:49N 44°30' E 014°08'411.2
2018-Oct-11 01:30N 44°27' E 014°11'  

Dump ship's entire track history